Startpagina
METAR-TAF:

METAR-TAF

Vliegvelden :

Internationale luchthaven van Bahrein

Bahrein, Bahrein

breedte: 26-16N, lengte: 050-39E, hoogte: 2 m

Actueel weer

Dit bericht is 28 minuten geleden gemaakt, om 10:00 UTC
Wind 8 kt uit het noordnoordwesten, variërend tussen het westen en het noorden
Temperatuur 36°C
Vochtigheid 57%
Druk 1008 hPa
Zicht: 6000 m
Onbewolkt

METAR: OBBI 231000Z 33008KT 280V360 6000 SKC 36/26 Q1008 NOSIG

Tijdstip: 13:28 (10:28 UTC)

Verwachting

Dit bericht is 2 uur en het 32 minuten geleden gemaakt, om 07:56 UTC
Verwachting geldig van 23 om 07 UTC tot 24 om 12 UTC
Wind 5 kt uit variabele richting
Zicht: 7000 m
Tijdelijke
van 23 om 07 UTC tot 23 om 09 UTC
Zicht: 4000 m
Heiigheid
Kans 30% :
Tijdelijke
van 23 om 20 UTC tot 24 om 05 UTC
Zicht: 4000 m
Heiigheid

TAF: OBBI 230756Z 2307/2412 VRB05KT 7000 NSC TEMPO 2307/2309 4000 HZ PROB30 TEMPO 2320/2405 4000 HZ

Waarnemingen en weersverwachtingen van meer dan 4000 vliegvelden (METAR en TAF).

De beschikbare stations zijn de gele en rode punten op de kaart.

Ga met uw muis naar het station om de naam te zien.

Klik dan om waarnemingen en weersverwachtingen te zien.

kaart wijzigen: klik op de groene knoppen met een zwart kruis om in te zoomen, op de groene knop met een streepje om uit te zoomen of op de groene pijlen voor aangrenzende kaarten.


METAR-TAF: